Aviation Digital Data Service (ADDS)

Output produced by METARs form (1830 UTC 25 March 2019)
found at http://www.aviationweather.gov/metar/data/
 
METAR text: LFPB 251800Z AUTO 35010KT 320V020 9999 SCT047 BKN056 10/00 Q1031 NOSIG
Conditions at: LFPB (PARIS/LE BOURGET, FR) observed 1800 UTC 25 March 2019
Temperature: 10.0°C (50°F)
Dewpoint: 0.0°C (32°F) [RH = 50%]
Pressure (altimeter): 30.44 inches Hg (1031.0 mb)
Winds: from the N (350 degrees) at 12 MPH (10 knots; 5.1 m/s)
Visibility: 6 or more miles (10+ km)
Ceiling: 5600 feet AGL
Clouds: scattered clouds at 4700 feet AGL
broken clouds at 5600 feet AGL
Weather: no significant weather observed at this time

METAR text: LFPB 251730Z AUTO 35009KT 320V020 CAVOK 10/M01 Q1030 BECMG 36015G25KT
Conditions at: LFPB (PARIS/LE BOURGET, FR) observed 1730 UTC 25 March 2019
Temperature: 10.0°C (50°F)
Dewpoint: -1.0°C (30°F) [RH = 46%]
Pressure (altimeter): 30.41 inches Hg (1030.0 mb)
Winds: from the N (350 degrees) at 10 MPH (9 knots; 4.6 m/s)
Visibility: 6 or more miles (10+ km)
Ceiling: ceiling and visibility are OK
Clouds: unknown
Weather: no significant weather observed at this time

METAR text: LFPB 251700Z AUTO 35009KT 320V020 CAVOK 10/M01 Q1030 BECMG 36015G25KT
Conditions at: LFPB (PARIS/LE BOURGET, FR) observed 1700 UTC 25 March 2019
Temperature: 10.0°C (50°F)
Dewpoint: -1.0°C (30°F) [RH = 46%]
Pressure (altimeter): 30.41 inches Hg (1030.0 mb)
Winds: from the N (350 degrees) at 10 MPH (9 knots; 4.6 m/s)
Visibility: 6 or more miles (10+ km)
Ceiling: ceiling and visibility are OK
Clouds: unknown
Weather: no significant weather observed at this time

METAR text: LFPB 251630Z AUTO 36011KT 330V030 CAVOK 11/M01 Q1030 BECMG 36015G25KT
Conditions at: LFPB (PARIS/LE BOURGET, FR) observed 1630 UTC 25 March 2019
Temperature: 11.0°C (52°F)
Dewpoint: -1.0°C (30°F) [RH = 43%]
Pressure (altimeter): 30.41 inches Hg (1030.0 mb)
Winds: from the N (360 degrees) at 13 MPH (11 knots; 5.7 m/s)
Visibility: 6 or more miles (10+ km)
Ceiling: ceiling and visibility are OK
Clouds: unknown
Weather: no significant weather observed at this time

METAR text: LFPB 251600Z AUTO 36013KT 330V030 CAVOK 11/M02 Q1030 BECMG 36015G25KT
Conditions at: LFPB (PARIS/LE BOURGET, FR) observed 1600 UTC 25 March 2019
Temperature: 11.0°C (52°F)
Dewpoint: -2.0°C (28°F) [RH = 40%]
Pressure (altimeter): 30.41 inches Hg (1030.0 mb)
Winds: from the N (360 degrees) at 15 MPH (13 knots; 6.7 m/s)
Visibility: 6 or more miles (10+ km)
Ceiling: ceiling and visibility are OK
Clouds: unknown
Weather: no significant weather observed at this time

METAR text: LFPB 251530Z AUTO 36012KT CAVOK 11/M01 Q1030 BECMG 36015G25KT
Conditions at: LFPB (PARIS/LE BOURGET, FR) observed 1530 UTC 25 March 2019
Temperature: 11.0°C (52°F)
Dewpoint: -1.0°C (30°F) [RH = 43%]
Pressure (altimeter): 30.41 inches Hg (1030.0 mb)
Winds: from the N (360 degrees) at 14 MPH (12 knots; 6.2 m/s)
Visibility: 6 or more miles (10+ km)
Ceiling: ceiling and visibility are OK
Clouds: unknown
Weather: no significant weather observed at this time

METAR text: LFPB 251500Z AUTO 36012KT 330V030 CAVOK 11/M01 Q1030 BECMG 36015G25KT
Conditions at: LFPB (PARIS/LE BOURGET, FR) observed 1500 UTC 25 March 2019
Temperature: 11.0°C (52°F)
Dewpoint: -1.0°C (30°F) [RH = 43%]
Pressure (altimeter): 30.41 inches Hg (1030.0 mb)
Winds: from the N (360 degrees) at 14 MPH (12 knots; 6.2 m/s)
Visibility: 6 or more miles (10+ km)
Ceiling: ceiling and visibility are OK
Clouds: unknown
Weather: no significant weather observed at this time

METAR text: LFPB 251430Z AUTO 35011KT 320V030 CAVOK 12/M01 Q1029 BECMG 36015G25KT
Conditions at: LFPB (PARIS/LE BOURGET, FR) observed 1430 UTC 25 March 2019
Temperature: 12.0°C (54°F)
Dewpoint: -1.0°C (30°F) [RH = 40%]
Pressure (altimeter): 30.38 inches Hg (1029.0 mb)
Winds: from the N (350 degrees) at 13 MPH (11 knots; 5.7 m/s)
Visibility: 6 or more miles (10+ km)
Ceiling: ceiling and visibility are OK
Clouds: unknown
Weather: no significant weather observed at this time

METAR text: LFPB 251400Z AUTO 35012KT 320V030 9999 FEW049 BKN062 11/M01 Q1029 BECMG 36015G25KT
Conditions at: LFPB (PARIS/LE BOURGET, FR) observed 1400 UTC 25 March 2019
Temperature: 11.0°C (52°F)
Dewpoint: -1.0°C (30°F) [RH = 43%]
Pressure (altimeter): 30.38 inches Hg (1029.0 mb)
Winds: from the N (350 degrees) at 14 MPH (12 knots; 6.2 m/s)
Visibility: 6 or more miles (10+ km)
Ceiling: 6200 feet AGL
Clouds: few clouds at 4900 feet AGL
broken clouds at 6200 feet AGL
Weather: no significant weather observed at this time

METAR text: LFPB 251330Z AUTO 35013KT 320V020 9999 FEW048 BKN058 BKN070 12/M01 Q1029 BECMG 36015G25KT
Conditions at: LFPB (PARIS/LE BOURGET, FR) observed 1330 UTC 25 March 2019
Temperature: 12.0°C (54°F)
Dewpoint: -1.0°C (30°F) [RH = 40%]
Pressure (altimeter): 30.38 inches Hg (1029.0 mb)
Winds: from the N (350 degrees) at 15 MPH (13 knots; 6.7 m/s)
Visibility: 6 or more miles (10+ km)
Ceiling: 5800 feet AGL
Clouds: few clouds at 4800 feet AGL
broken clouds at 5800 feet AGL
broken clouds at 7000 feet AGL
Weather: no significant weather observed at this time

METAR text: LFPB 251300Z AUTO 35013KT 330V030 CAVOK 12/M01 Q1029 BECMG 36015G25KT
Conditions at: LFPB (PARIS/LE BOURGET, FR) observed 1300 UTC 25 March 2019
Temperature: 12.0°C (54°F)
Dewpoint: -1.0°C (30°F) [RH = 40%]
Pressure (altimeter): 30.38 inches Hg (1029.0 mb)
Winds: from the N (350 degrees) at 15 MPH (13 knots; 6.7 m/s)
Visibility: 6 or more miles (10+ km)
Ceiling: ceiling and visibility are OK
Clouds: unknown
Weather: no significant weather observed at this time

METAR text: LFPB 251230Z AUTO 35012KT 300V030 CAVOK 11/M02 Q1029 BECMG 36015G25KT
Conditions at: LFPB (PARIS/LE BOURGET, FR) observed 1230 UTC 25 March 2019
Temperature: 11.0°C (52°F)
Dewpoint: -2.0°C (28°F) [RH = 40%]
Pressure (altimeter): 30.38 inches Hg (1029.0 mb)
Winds: from the N (350 degrees) at 14 MPH (12 knots; 6.2 m/s)
Visibility: 6 or more miles (10+ km)
Ceiling: ceiling and visibility are OK
Clouds: unknown
Weather: no significant weather observed at this time

METAR text: LFPB 251200Z AUTO 34014G24KT 290V030 9999 FEW049 11/M02 Q1029 NOSIG
Conditions at: LFPB (PARIS/LE BOURGET, FR) observed 1200 UTC 25 March 2019
Temperature: 11.0°C (52°F)
Dewpoint: -2.0°C (28°F) [RH = 40%]
Pressure (altimeter): 30.38 inches Hg (1029.0 mb)
Winds: from the NNW (340 degrees) at 16 MPH (14 knots; 7.2 m/s)
gusting to 28 MPH (24 knots; 12.3 m/s)
Visibility: 6 or more miles (10+ km)
Ceiling: at least 12,000 feet AGL
Clouds: few clouds at 4900 feet AGL
Weather: no significant weather observed at this time

METAR text: LFPB 251130Z AUTO 34013KT 310V010 9999 BKN048 BKN056 11/M01 Q1029 BECMG 36015G25KT
Conditions at: LFPB (PARIS/LE BOURGET, FR) observed 1130 UTC 25 March 2019
Temperature: 11.0°C (52°F)
Dewpoint: -1.0°C (30°F) [RH = 43%]
Pressure (altimeter): 30.38 inches Hg (1029.0 mb)
Winds: from the NNW (340 degrees) at 15 MPH (13 knots; 6.7 m/s)
Visibility: 6 or more miles (10+ km)
Ceiling: 4800 feet AGL
Clouds: broken clouds at 4800 feet AGL
broken clouds at 5600 feet AGL
Weather: no significant weather observed at this time

METAR text: LFPB 251100Z AUTO 36012KT 320V040 9999 FEW046 11/M00 Q1030 TEMPO 36015G25KT
Conditions at: LFPB (PARIS/LE BOURGET, FR) observed 1100 UTC 25 March 2019
Temperature: 11.0°C (52°F)
Dewpoint: 0.0°C (32°F) [RH = 47%]
Pressure (altimeter): 30.41 inches Hg (1030.0 mb)
Winds: from the N (360 degrees) at 14 MPH (12 knots; 6.2 m/s)
Visibility: 6 or more miles (10+ km)
Ceiling: at least 12,000 feet AGL
Clouds: few clouds at 4600 feet AGL
Weather: no significant weather observed at this time

METAR text: LFPB 251030Z AUTO 34015KT 310V010 9999 SCT041 10/M01 Q1029 TEMPO 36015G25KT
Conditions at: LFPB (PARIS/LE BOURGET, FR) observed 1030 UTC 25 March 2019
Temperature: 10.0°C (50°F)
Dewpoint: -1.0°C (30°F) [RH = 46%]
Pressure (altimeter): 30.38 inches Hg (1029.0 mb)
Winds: from the NNW (340 degrees) at 17 MPH (15 knots; 7.7 m/s)
Visibility: 6 or more miles (10+ km)
Ceiling: at least 12,000 feet AGL
Clouds: scattered clouds at 4100 feet AGL
Weather: no significant weather observed at this time

METAR text: LFPB 251000Z AUTO 34015KT 310V010 9999 FEW034 BKN040 BKN046 10/00 Q1029 BECMG 31005KT
Conditions at: LFPB (PARIS/LE BOURGET, FR) observed 1000 UTC 25 March 2019
Temperature: 10.0°C (50°F)
Dewpoint: 0.0°C (32°F) [RH = 50%]
Pressure (altimeter): 30.38 inches Hg (1029.0 mb)
Winds: from the NNW (340 degrees) at 17 MPH (15 knots; 7.7 m/s)
Visibility: 6 or more miles (10+ km)
Ceiling: 4000 feet AGL
Clouds: few clouds at 3400 feet AGL
broken clouds at 4000 feet AGL
broken clouds at 4600 feet AGL
Weather: no significant weather observed at this time

METAR text: LFPB 250930Z AUTO 34015KT 310V020 9999 FEW003 SCT033 BKN042 10/02 Q1029 BECMG 31005KT
Conditions at: LFPB (PARIS/LE BOURGET, FR) observed 0930 UTC 25 March 2019
Temperature: 10.0°C (50°F)
Dewpoint: 2.0°C (36°F) [RH = 57%]
Pressure (altimeter): 30.38 inches Hg (1029.0 mb)
Winds: from the NNW (340 degrees) at 17 MPH (15 knots; 7.7 m/s)
Visibility: 6 or more miles (10+ km)
Ceiling: 4200 feet AGL
Clouds: few clouds at 300 feet AGL
scattered clouds at 3300 feet AGL
broken clouds at 4200 feet AGL
Weather: no significant weather observed at this time

METAR text: LFPB 250900Z AUTO 33015KT 9999 SCT032 09/02 Q1029 BECMG 31005KT
Conditions at: LFPB (PARIS/LE BOURGET, FR) observed 0900 UTC 25 March 2019
Temperature: 9.0°C (48°F)
Dewpoint: 2.0°C (36°F) [RH = 61%]
Pressure (altimeter): 30.38 inches Hg (1029.0 mb)
Winds: from the NNW (330 degrees) at 17 MPH (15 knots; 7.7 m/s)
Visibility: 6 or more miles (10+ km)
Ceiling: at least 12,000 feet AGL
Clouds: scattered clouds at 3200 feet AGL
Weather: no significant weather observed at this time

METAR text: LFPB 250830Z AUTO 33010KT 290V360 CAVOK 09/03 Q1028 NOSIG
Conditions at: LFPB (PARIS/LE BOURGET, FR) observed 0830 UTC 25 March 2019
Temperature: 9.0°C (48°F)
Dewpoint: 3.0°C (37°F) [RH = 66%]
Pressure (altimeter): 30.35 inches Hg (1028.0 mb)
Winds: from the NNW (330 degrees) at 12 MPH (10 knots; 5.1 m/s)
Visibility: 6 or more miles (10+ km)
Ceiling: ceiling and visibility are OK
Clouds: unknown
Weather: no significant weather observed at this time

METAR text: LFPB 250800Z AUTO 31008KT 280V340 CAVOK 08/03 Q1028 NOSIG
Conditions at: LFPB (PARIS/LE BOURGET, FR) observed 0800 UTC 25 March 2019
Temperature: 8.0°C (46°F)
Dewpoint: 3.0°C (37°F) [RH = 71%]
Pressure (altimeter): 30.35 inches Hg (1028.0 mb)
Winds: from the NW (310 degrees) at 9 MPH (8 knots; 4.1 m/s)
Visibility: 6 or more miles (10+ km)
Ceiling: ceiling and visibility are OK
Clouds: unknown
Weather: no significant weather observed at this time

METAR text: LFPB 250730Z AUTO 31008KT 280V340 CAVOK 07/03 Q1028 NOSIG
Conditions at: LFPB (PARIS/LE BOURGET, FR) observed 0730 UTC 25 March 2019
Temperature: 7.0°C (45°F)
Dewpoint: 3.0°C (37°F) [RH = 76%]
Pressure (altimeter): 30.35 inches Hg (1028.0 mb)
Winds: from the NW (310 degrees) at 9 MPH (8 knots; 4.1 m/s)
Visibility: 6 or more miles (10+ km)
Ceiling: ceiling and visibility are OK
Clouds: unknown
Weather: no significant weather observed at this time

METAR text: LFPB 250700Z AUTO 31005KT 270V360 CAVOK 06/04 Q1028 NOSIG
Conditions at: LFPB (PARIS/LE BOURGET, FR) observed 0700 UTC 25 March 2019
Temperature: 6.0°C (43°F)
Dewpoint: 4.0°C (39°F) [RH = 87%]
Pressure (altimeter): 30.35 inches Hg (1028.0 mb)
Winds: from the NW (310 degrees) at 6 MPH (5 knots; 2.6 m/s)
Visibility: 6 or more miles (10+ km)
Ceiling: ceiling and visibility are OK
Clouds: unknown
Weather: no significant weather observed at this time

METAR text: LFPB 250630Z AUTO 24004KT CAVOK 03/02 Q1028 NOSIG
Conditions at: LFPB (PARIS/LE BOURGET, FR) observed 0630 UTC 25 March 2019
Temperature: 3.0°C (37°F)
Dewpoint: 2.0°C (36°F) [RH = 93%]
Pressure (altimeter): 30.35 inches Hg (1028.0 mb)
Winds: from the WSW (240 degrees) at 5 MPH (4 knots; 2.1 m/s)
Visibility: 6 or more miles (10+ km)
Ceiling: ceiling and visibility are OK
Clouds: unknown
Weather: no significant weather observed at this time

METAR text: LFPB 250600Z AUTO 23004KT CAVOK 03/01 Q1027 NOSIG
Conditions at: LFPB (PARIS/LE BOURGET, FR) observed 0600 UTC 25 March 2019
Temperature: 3.0°C (37°F)
Dewpoint: 1.0°C (34°F) [RH = 87%]
Pressure (altimeter): 30.32 inches Hg (1027.0 mb)
Winds: from the SW (230 degrees) at 5 MPH (4 knots; 2.1 m/s)
Visibility: 6 or more miles (10+ km)
Ceiling: ceiling and visibility are OK
Clouds: unknown
Weather: no significant weather observed at this time

METAR text: LFPB 250530Z AUTO 29003KT 260V320 CAVOK 04/01 Q1027 NOSIG
Conditions at: LFPB (PARIS/LE BOURGET, FR) observed 0530 UTC 25 March 2019
Temperature: 4.0°C (39°F)
Dewpoint: 1.0°C (34°F) [RH = 81%]
Pressure (altimeter): 30.32 inches Hg (1027.0 mb)
Winds: from the WNW (290 degrees) at 3 MPH (3 knots; 1.5 m/s)
Visibility: 6 or more miles (10+ km)
Ceiling: ceiling and visibility are OK
Clouds: unknown
Weather: no significant weather observed at this time

METAR text: LFPB 250500Z AUTO VRB03KT CAVOK 05/02 Q1027 NOSIG
Conditions at: LFPB (PARIS/LE BOURGET, FR) observed 0500 UTC 25 March 2019
Temperature: 5.0°C (41°F)
Dewpoint: 2.0°C (36°F) [RH = 81%]
Pressure (altimeter): 30.32 inches Hg (1027.0 mb)
Winds: variable direction winds at 3 MPH (3 knots; 1.5 m/s)
Visibility: 6 or more miles (10+ km)
Ceiling: ceiling and visibility are OK
Clouds: unknown
Weather: no significant weather observed at this time

METAR text: LFPB 250430Z AUTO 30004KT 260V340 CAVOK 05/02 Q1027 NOSIG
Conditions at: LFPB (PARIS/LE BOURGET, FR) observed 0430 UTC 25 March 2019
Temperature: 5.0°C (41°F)
Dewpoint: 2.0°C (36°F) [RH = 81%]
Pressure (altimeter): 30.32 inches Hg (1027.0 mb)
Winds: from the WNW (300 degrees) at 5 MPH (4 knots; 2.1 m/s)
Visibility: 6 or more miles (10+ km)
Ceiling: ceiling and visibility are OK
Clouds: unknown
Weather: no significant weather observed at this time

METAR text: LFPB 250400Z AUTO 31004KT 280V350 CAVOK 05/03 Q1027 NOSIG
Conditions at: LFPB (PARIS/LE BOURGET, FR) observed 0400 UTC 25 March 2019
Temperature: 5.0°C (41°F)
Dewpoint: 3.0°C (37°F) [RH = 87%]
Pressure (altimeter): 30.32 inches Hg (1027.0 mb)
Winds: from the NW (310 degrees) at 5 MPH (4 knots; 2.1 m/s)
Visibility: 6 or more miles (10+ km)
Ceiling: ceiling and visibility are OK
Clouds: unknown
Weather: no significant weather observed at this time

METAR text: LFPB 250330Z AUTO VRB02KT CAVOK 03/01 Q1027 NOSIG
Conditions at: LFPB (PARIS/LE BOURGET, FR) observed 0330 UTC 25 March 2019
Temperature: 3.0°C (37°F)
Dewpoint: 1.0°C (34°F) [RH = 87%]
Pressure (altimeter): 30.32 inches Hg (1027.0 mb)
Winds: variable direction winds at 2 MPH (2 knots; 1.0 m/s)
Visibility: 6 or more miles (10+ km)
Ceiling: ceiling and visibility are OK
Clouds: unknown
Weather: no significant weather observed at this time

METAR text: LFPB 250300Z AUTO 22003KT CAVOK 03/M00 Q1027 NOSIG
Conditions at: LFPB (PARIS/LE BOURGET, FR) observed 0300 UTC 25 March 2019
Temperature: 3.0°C (37°F)
Dewpoint: 0.0°C (32°F) [RH = 81%]
Pressure (altimeter): 30.32 inches Hg (1027.0 mb)
Winds: from the SW (220 degrees) at 3 MPH (3 knots; 1.5 m/s)
Visibility: 6 or more miles (10+ km)
Ceiling: ceiling and visibility are OK
Clouds: unknown
Weather: no significant weather observed at this time

METAR text: LFPB 250230Z AUTO VRB02KT CAVOK 03/M01 Q1027 NOSIG
Conditions at: LFPB (PARIS/LE BOURGET, FR) observed 0230 UTC 25 March 2019
Temperature: 3.0°C (37°F)
Dewpoint: -1.0°C (30°F) [RH = 75%]
Pressure (altimeter): 30.32 inches Hg (1027.0 mb)
Winds: variable direction winds at 2 MPH (2 knots; 1.0 m/s)
Visibility: 6 or more miles (10+ km)
Ceiling: ceiling and visibility are OK
Clouds: unknown
Weather: no significant weather observed at this time

METAR text: LFPB 250200Z AUTO 26003KT 230V290 CAVOK 04/M01 Q1027 NOSIG
Conditions at: LFPB (PARIS/LE BOURGET, FR) observed 0200 UTC 25 March 2019
Temperature: 4.0°C (39°F)
Dewpoint: -1.0°C (30°F) [RH = 70%]
Pressure (altimeter): 30.32 inches Hg (1027.0 mb)
Winds: from the W (260 degrees) at 3 MPH (3 knots; 1.5 m/s)
Visibility: 6 or more miles (10+ km)
Ceiling: ceiling and visibility are OK
Clouds: unknown
Weather: no significant weather observed at this time

METAR text: LFPB 250130Z AUTO 25003KT CAVOK 04/M01 Q1027 NOSIG
Conditions at: LFPB (PARIS/LE BOURGET, FR) observed 0130 UTC 25 March 2019
Temperature: 4.0°C (39°F)
Dewpoint: -1.0°C (30°F) [RH = 70%]
Pressure (altimeter): 30.32 inches Hg (1027.0 mb)
Winds: from the WSW (250 degrees) at 3 MPH (3 knots; 1.5 m/s)
Visibility: 6 or more miles (10+ km)
Ceiling: ceiling and visibility are OK
Clouds: unknown
Weather: no significant weather observed at this time

METAR text: LFPB 250100Z AUTO 24003KT CAVOK 05/M02 Q1027 NOSIG
Conditions at: LFPB (PARIS/LE BOURGET, FR) observed 0100 UTC 25 March 2019
Temperature: 5.0°C (41°F)
Dewpoint: -2.0°C (28°F) [RH = 60%]
Pressure (altimeter): 30.32 inches Hg (1027.0 mb)
Winds: from the WSW (240 degrees) at 3 MPH (3 knots; 1.5 m/s)
Visibility: 6 or more miles (10+ km)
Ceiling: ceiling and visibility are OK
Clouds: unknown
Weather: no significant weather observed at this time

METAR text: LFPB 250030Z AUTO 27003KT 240V300 CAVOK 05/M02 Q1028 NOSIG
Conditions at: LFPB (PARIS/LE BOURGET, FR) observed 0030 UTC 25 March 2019
Temperature: 5.0°C (41°F)
Dewpoint: -2.0°C (28°F) [RH = 60%]
Pressure (altimeter): 30.35 inches Hg (1028.0 mb)
Winds: from the W (270 degrees) at 3 MPH (3 knots; 1.5 m/s)
Visibility: 6 or more miles (10+ km)
Ceiling: ceiling and visibility are OK
Clouds: unknown
Weather: no significant weather observed at this time

METAR text: LFPB 250000Z AUTO VRB03KT CAVOK 05/M02 Q1028 NOSIG
Conditions at: LFPB (PARIS/LE BOURGET, FR) observed 0000 UTC 25 March 2019
Temperature: 5.0°C (41°F)
Dewpoint: -2.0°C (28°F) [RH = 60%]
Pressure (altimeter): 30.35 inches Hg (1028.0 mb)
Winds: variable direction winds at 3 MPH (3 knots; 1.5 m/s)
Visibility: 6 or more miles (10+ km)
Ceiling: ceiling and visibility are OK
Clouds: unknown
Weather: no significant weather observed at this time

METAR text: LFPB 242330Z AUTO 29004KT CAVOK 06/M01 Q1028 NOSIG
Conditions at: LFPB (PARIS/LE BOURGET, FR) observed 2330 UTC 24 March 2019
Temperature: 6.0°C (43°F)
Dewpoint: -1.0°C (30°F) [RH = 61%]
Pressure (altimeter): 30.35 inches Hg (1028.0 mb)
Winds: from the WNW (290 degrees) at 5 MPH (4 knots; 2.1 m/s)
Visibility: 6 or more miles (10+ km)
Ceiling: ceiling and visibility are OK
Clouds: unknown
Weather: no significant weather observed at this time

METAR text: LFPB 242300Z AUTO VRB03KT CAVOK 06/00 Q1028 NOSIG
Conditions at: LFPB (PARIS/LE BOURGET, FR) observed 2300 UTC 24 March 2019
Temperature: 6.0°C (43°F)
Dewpoint: 0.0°C (32°F) [RH = 65%]
Pressure (altimeter): 30.35 inches Hg (1028.0 mb)
Winds: variable direction winds at 3 MPH (3 knots; 1.5 m/s)
Visibility: 6 or more miles (10+ km)
Ceiling: ceiling and visibility are OK
Clouds: unknown
Weather: no significant weather observed at this time

METAR text: LFPB 242230Z AUTO 30003KT 260V340 CAVOK 07/01 Q1028 NOSIG
Conditions at: LFPB (PARIS/LE BOURGET, FR) observed 2230 UTC 24 March 2019
Temperature: 7.0°C (45°F)
Dewpoint: 1.0°C (34°F) [RH = 66%]
Pressure (altimeter): 30.35 inches Hg (1028.0 mb)
Winds: from the WNW (300 degrees) at 3 MPH (3 knots; 1.5 m/s)
Visibility: 6 or more miles (10+ km)
Ceiling: ceiling and visibility are OK
Clouds: unknown
Weather: no significant weather observed at this time

METAR text: LFPB 242200Z AUTO 31004KT 280V340 CAVOK 07/02 Q1028 NOSIG
Conditions at: LFPB (PARIS/LE BOURGET, FR) observed 2200 UTC 24 March 2019
Temperature: 7.0°C (45°F)
Dewpoint: 2.0°C (36°F) [RH = 70%]
Pressure (altimeter): 30.35 inches Hg (1028.0 mb)
Winds: from the NW (310 degrees) at 5 MPH (4 knots; 2.1 m/s)
Visibility: 6 or more miles (10+ km)
Ceiling: ceiling and visibility are OK
Clouds: unknown
Weather: no significant weather observed at this time

METAR text: LFPB 242130Z AUTO 31005KT 270V330 CAVOK 08/02 Q1028 NOSIG
Conditions at: LFPB (PARIS/LE BOURGET, FR) observed 2130 UTC 24 March 2019
Temperature: 8.0°C (46°F)
Dewpoint: 2.0°C (36°F) [RH = 66%]
Pressure (altimeter): 30.35 inches Hg (1028.0 mb)
Winds: from the NW (310 degrees) at 6 MPH (5 knots; 2.6 m/s)
Visibility: 6 or more miles (10+ km)
Ceiling: ceiling and visibility are OK
Clouds: unknown
Weather: no significant weather observed at this time

METAR text: LFPB 242100Z AUTO 32003KT CAVOK 07/02 Q1028 NOSIG
Conditions at: LFPB (PARIS/LE BOURGET, FR) observed 2100 UTC 24 March 2019
Temperature: 7.0°C (45°F)
Dewpoint: 2.0°C (36°F) [RH = 70%]
Pressure (altimeter): 30.35 inches Hg (1028.0 mb)
Winds: from the NW (320 degrees) at 3 MPH (3 knots; 1.5 m/s)
Visibility: 6 or more miles (10+ km)
Ceiling: ceiling and visibility are OK
Clouds: unknown
Weather: no significant weather observed at this time

METAR text: LFPB 242030Z AUTO 33002KT CAVOK 08/02 Q1028 NOSIG
Conditions at: LFPB (PARIS/LE BOURGET, FR) observed 2030 UTC 24 March 2019
Temperature: 8.0°C (46°F)
Dewpoint: 2.0°C (36°F) [RH = 66%]
Pressure (altimeter): 30.35 inches Hg (1028.0 mb)
Winds: from the NNW (330 degrees) at 2 MPH (2 knots; 1.0 m/s)
Visibility: 6 or more miles (10+ km)
Ceiling: ceiling and visibility are OK
Clouds: unknown
Weather: no significant weather observed at this time

METAR text: LFPB 242000Z AUTO 32003KT CAVOK 09/02 Q1028 NOSIG
Conditions at: LFPB (PARIS/LE BOURGET, FR) observed 2000 UTC 24 March 2019
Temperature: 9.0°C (48°F)
Dewpoint: 2.0°C (36°F) [RH = 61%]
Pressure (altimeter): 30.35 inches Hg (1028.0 mb)
Winds: from the NW (320 degrees) at 3 MPH (3 knots; 1.5 m/s)
Visibility: 6 or more miles (10+ km)
Ceiling: ceiling and visibility are OK
Clouds: unknown
Weather: no significant weather observed at this time

METAR text: LFPB 241930Z AUTO 32003KT CAVOK 09/02 Q1028 NOSIG
Conditions at: LFPB (PARIS/LE BOURGET, FR) observed 1930 UTC 24 March 2019
Temperature: 9.0°C (48°F)
Dewpoint: 2.0°C (36°F) [RH = 61%]
Pressure (altimeter): 30.35 inches Hg (1028.0 mb)
Winds: from the NW (320 degrees) at 3 MPH (3 knots; 1.5 m/s)
Visibility: 6 or more miles (10+ km)
Ceiling: ceiling and visibility are OK
Clouds: unknown
Weather: no significant weather observed at this time

METAR text: LFPB 241900Z AUTO 32003KT CAVOK 10/02 Q1028 NOSIG
Conditions at: LFPB (PARIS/LE BOURGET, FR) observed 1900 UTC 24 March 2019
Temperature: 10.0°C (50°F)
Dewpoint: 2.0°C (36°F) [RH = 57%]
Pressure (altimeter): 30.35 inches Hg (1028.0 mb)
Winds: from the NW (320 degrees) at 3 MPH (3 knots; 1.5 m/s)
Visibility: 6 or more miles (10+ km)
Ceiling: ceiling and visibility are OK
Clouds: unknown
Weather: no significant weather observed at this time

METAR text: LFPB 241830Z AUTO 33005KT CAVOK 11/02 Q1028 NOSIG
Conditions at: LFPB (PARIS/LE BOURGET, FR) observed 1830 UTC 24 March 2019
Temperature: 11.0°C (52°F)
Dewpoint: 2.0°C (36°F) [RH = 54%]
Pressure (altimeter): 30.35 inches Hg (1028.0 mb)
Winds: from the NNW (330 degrees) at 6 MPH (5 knots; 2.6 m/s)
Visibility: 6 or more miles (10+ km)
Ceiling: ceiling and visibility are OK
Clouds: unknown
Weather: no significant weather observed at this time

METAR text: LFPB 241800Z AUTO 34005KT CAVOK 11/02 Q1027 NOSIG
Conditions at: LFPB (PARIS/LE BOURGET, FR) observed 1800 UTC 24 March 2019
Temperature: 11.0°C (52°F)
Dewpoint: 2.0°C (36°F) [RH = 54%]
Pressure (altimeter): 30.32 inches Hg (1027.0 mb)
Winds: from the NNW (340 degrees) at 6 MPH (5 knots; 2.6 m/s)
Visibility: 6 or more miles (10+ km)
Ceiling: ceiling and visibility are OK
Clouds: unknown
Weather: no significant weather observed at this time

METAR text: LFPB 241730Z AUTO 36007KT 330V030 9999 SCT045 12/02 Q1027 NOSIG
Conditions at: LFPB (PARIS/LE BOURGET, FR) observed 1730 UTC 24 March 2019
Temperature: 12.0°C (54°F)
Dewpoint: 2.0°C (36°F) [RH = 50%]
Pressure (altimeter): 30.32 inches Hg (1027.0 mb)
Winds: from the N (360 degrees) at 8 MPH (7 knots; 3.6 m/s)
Visibility: 6 or more miles (10+ km)
Ceiling: at least 12,000 feet AGL
Clouds: scattered clouds at 4500 feet AGL
Weather: no significant weather observed at this time

METAR text: LFPB 241700Z AUTO 33005KT 290V010 9999 BKN045 13/03 Q1027 NOSIG
Conditions at: LFPB (PARIS/LE BOURGET, FR) observed 1700 UTC 24 March 2019
Temperature: 13.0°C (55°F)
Dewpoint: 3.0°C (37°F) [RH = 51%]
Pressure (altimeter): 30.32 inches Hg (1027.0 mb)
Winds: from the NNW (330 degrees) at 6 MPH (5 knots; 2.6 m/s)
Visibility: 6 or more miles (10+ km)
Ceiling: 4500 feet AGL
Clouds: broken clouds at 4500 feet AGL
Weather: no significant weather observed at this time

METAR text: LFPB 241630Z AUTO 01007KT 340V040 9999 FEW036 SCT044 12/04 Q1027 NOSIG
Conditions at: LFPB (PARIS/LE BOURGET, FR) observed 1630 UTC 24 March 2019
Temperature: 12.0°C (54°F)
Dewpoint: 4.0°C (39°F) [RH = 58%]
Pressure (altimeter): 30.32 inches Hg (1027.0 mb)
Winds: from the N (10 degrees) at 8 MPH (7 knots; 3.6 m/s)
Visibility: 6 or more miles (10+ km)
Ceiling: at least 12,000 feet AGL
Clouds: few clouds at 3600 feet AGL
scattered clouds at 4400 feet AGL
Weather: no significant weather observed at this time

METAR text: LFPB 241600Z AUTO 35007KT 9999 FEW035 BKN049 12/04 Q1027 NOSIG
Conditions at: LFPB (PARIS/LE BOURGET, FR) observed 1600 UTC 24 March 2019
Temperature: 12.0°C (54°F)
Dewpoint: 4.0°C (39°F) [RH = 58%]
Pressure (altimeter): 30.32 inches Hg (1027.0 mb)
Winds: from the N (350 degrees) at 8 MPH (7 knots; 3.6 m/s)
Visibility: 6 or more miles (10+ km)
Ceiling: 4900 feet AGL
Clouds: few clouds at 3500 feet AGL
broken clouds at 4900 feet AGL
Weather: no significant weather observed at this time

METAR text: LFPB 241530Z AUTO 35007KT 300V030 9999 SCT032 BKN039 OVC048 12/05 Q1027 NOSIG
Conditions at: LFPB (PARIS/LE BOURGET, FR) observed 1530 UTC 24 March 2019
Temperature: 12.0°C (54°F)
Dewpoint: 5.0°C (41°F) [RH = 62%]
Pressure (altimeter): 30.32 inches Hg (1027.0 mb)
Winds: from the N (350 degrees) at 8 MPH (7 knots; 3.6 m/s)
Visibility: 6 or more miles (10+ km)
Ceiling: 3900 feet AGL
Clouds: scattered clouds at 3200 feet AGL
broken clouds at 3900 feet AGL
overcast cloud deck at 4800 feet AGL
Weather: no significant weather observed at this time

METAR text: LFPB 241500Z AUTO 35008KT 310V020 9999 SCT033 BKN043 BKN052 12/05 Q1027 NOSIG
Conditions at: LFPB (PARIS/LE BOURGET, FR) observed 1500 UTC 24 March 2019
Temperature: 12.0°C (54°F)
Dewpoint: 5.0°C (41°F) [RH = 62%]
Pressure (altimeter): 30.32 inches Hg (1027.0 mb)
Winds: from the N (350 degrees) at 9 MPH (8 knots; 4.1 m/s)
Visibility: 6 or more miles (10+ km)
Ceiling: 4300 feet AGL
Clouds: scattered clouds at 3300 feet AGL
broken clouds at 4300 feet AGL
broken clouds at 5200 feet AGL
Weather: no significant weather observed at this time

METAR text: LFPB 241430Z AUTO 36007KT 330V030 9999 FEW031 OVC050 12/05 Q1028 NOSIG
Conditions at: LFPB (PARIS/LE BOURGET, FR) observed 1430 UTC 24 March 2019
Temperature: 12.0°C (54°F)
Dewpoint: 5.0°C (41°F) [RH = 62%]
Pressure (altimeter): 30.35 inches Hg (1028.0 mb)
Winds: from the N (360 degrees) at 8 MPH (7 knots; 3.6 m/s)
Visibility: 6 or more miles (10+ km)
Ceiling: 5000 feet AGL
Clouds: few clouds at 3100 feet AGL
overcast cloud deck at 5000 feet AGL
Weather: no significant weather observed at this time

METAR text: LFPB 241400Z AUTO 35009KT 320V020 9999 FEW028 OVC048 12/04 Q1028 NOSIG
Conditions at: LFPB (PARIS/LE BOURGET, FR) observed 1400 UTC 24 March 2019
Temperature: 12.0°C (54°F)
Dewpoint: 4.0°C (39°F) [RH = 58%]
Pressure (altimeter): 30.35 inches Hg (1028.0 mb)
Winds: from the N (350 degrees) at 10 MPH (9 knots; 4.6 m/s)
Visibility: 6 or more miles (10+ km)
Ceiling: 4800 feet AGL
Clouds: few clouds at 2800 feet AGL
overcast cloud deck at 4800 feet AGL
Weather: no significant weather observed at this time

METAR text: LFPB 241330Z AUTO 36006KT 330V030 9999 FEW027 OVC045 11/05 Q1028 NOSIG
Conditions at: LFPB (PARIS/LE BOURGET, FR) observed 1330 UTC 24 March 2019
Temperature: 11.0°C (52°F)
Dewpoint: 5.0°C (41°F) [RH = 66%]
Pressure (altimeter): 30.35 inches Hg (1028.0 mb)
Winds: from the N (360 degrees) at 7 MPH (6 knots; 3.1 m/s)
Visibility: 6 or more miles (10+ km)
Ceiling: 4500 feet AGL
Clouds: few clouds at 2700 feet AGL
overcast cloud deck at 4500 feet AGL
Weather: no significant weather observed at this time

METAR text: LFPB 241300Z AUTO 33009KT 9999 FEW023 OVC047 11/05 Q1028 NOSIG
Conditions at: LFPB (PARIS/LE BOURGET, FR) observed 1300 UTC 24 March 2019
Temperature: 11.0°C (52°F)
Dewpoint: 5.0°C (41°F) [RH = 66%]
Pressure (altimeter): 30.35 inches Hg (1028.0 mb)
Winds: from the NNW (330 degrees) at 10 MPH (9 knots; 4.6 m/s)
Visibility: 6 or more miles (10+ km)
Ceiling: 4700 feet AGL
Clouds: few clouds at 2300 feet AGL
overcast cloud deck at 4700 feet AGL
Weather: no significant weather observed at this time

METAR text: LFPB 241230Z AUTO 34008KT 320V030 9999 FEW022 OVC052 12/06 Q1028 NOSIG
Conditions at: LFPB (PARIS/LE BOURGET, FR) observed 1230 UTC 24 March 2019
Temperature: 12.0°C (54°F)
Dewpoint: 6.0°C (43°F) [RH = 67%]
Pressure (altimeter): 30.35 inches Hg (1028.0 mb)
Winds: from the NNW (340 degrees) at 9 MPH (8 knots; 4.1 m/s)
Visibility: 6 or more miles (10+ km)
Ceiling: 5200 feet AGL
Clouds: few clouds at 2200 feet AGL
overcast cloud deck at 5200 feet AGL
Weather: no significant weather observed at this time

METAR text: LFPB 241200Z AUTO 35008KT 300V020 9000 BKN022 BKN045 OVC054 11/06 Q1028 NOSIG
Conditions at: LFPB (PARIS/LE BOURGET, FR) observed 1200 UTC 24 March 2019
Temperature: 11.0°C (52°F)
Dewpoint: 6.0°C (43°F) [RH = 71%]
Pressure (altimeter): 30.35 inches Hg (1028.0 mb)
Winds: from the N (350 degrees) at 9 MPH (8 knots; 4.1 m/s)
Visibility: 6 miles ( 9 km)
Ceiling: 2200 feet AGL
Clouds: broken clouds at 2200 feet AGL
broken clouds at 4500 feet AGL
overcast cloud deck at 5400 feet AGL
Weather: no significant weather observed at this time

METAR text: LFPB 241130Z AUTO 35008KT 310V020 9000 BKN021 OVC056 11/06 Q1028 NOSIG
Conditions at: LFPB (PARIS/LE BOURGET, FR) observed 1130 UTC 24 March 2019
Temperature: 11.0°C (52°F)
Dewpoint: 6.0°C (43°F) [RH = 71%]
Pressure (altimeter): 30.35 inches Hg (1028.0 mb)
Winds: from the N (350 degrees) at 9 MPH (8 knots; 4.1 m/s)
Visibility: 6 miles ( 9 km)
Ceiling: 2100 feet AGL
Clouds: broken clouds at 2100 feet AGL
overcast cloud deck at 5600 feet AGL
Weather: no significant weather observed at this time

METAR text: LFPB 241100Z AUTO 35007KT 290V030 9000 BKN018 BKN045 OVC054 10/05 Q1028 NOSIG
Conditions at: LFPB (PARIS/LE BOURGET, FR) observed 1100 UTC 24 March 2019
Temperature: 10.0°C (50°F)
Dewpoint: 5.0°C (41°F) [RH = 71%]
Pressure (altimeter): 30.35 inches Hg (1028.0 mb)
Winds: from the N (350 degrees) at 8 MPH (7 knots; 3.6 m/s)
Visibility: 6 miles ( 9 km)
Ceiling: 1800 feet AGL
Clouds: broken clouds at 1800 feet AGL
broken clouds at 4500 feet AGL
overcast cloud deck at 5400 feet AGL
Weather: no significant weather observed at this time

METAR text: LFPB 241030Z AUTO 35007KT 310V020 8000 BKN017 BKN022 OVC047 10/05 Q1029 NOSIG
Conditions at: LFPB (PARIS/LE BOURGET, FR) observed 1030 UTC 24 March 2019
Temperature: 10.0°C (50°F)
Dewpoint: 5.0°C (41°F) [RH = 71%]
Pressure (altimeter): 30.38 inches Hg (1029.0 mb)
Winds: from the N (350 degrees) at 8 MPH (7 knots; 3.6 m/s)
Visibility: 5 miles ( 8 km)
Ceiling: 1700 feet AGL
Clouds: broken clouds at 1700 feet AGL
broken clouds at 2200 feet AGL
overcast cloud deck at 4700 feet AGL
Weather: no significant weather observed at this time

METAR text: LFPB 241000Z AUTO 34006KT 8000 BKN015 OVC020 09/06 Q1028 NOSIG
Conditions at: LFPB (PARIS/LE BOURGET, FR) observed 1000 UTC 24 March 2019
Temperature: 9.0°C (48°F)
Dewpoint: 6.0°C (43°F) [RH = 81%]
Pressure (altimeter): 30.35 inches Hg (1028.0 mb)
Winds: from the NNW (340 degrees) at 7 MPH (6 knots; 3.1 m/s)
Visibility: 5 miles ( 8 km)
Ceiling: 1500 feet AGL
Clouds: broken clouds at 1500 feet AGL
overcast cloud deck at 2000 feet AGL
Weather: no significant weather observed at this time

METAR text: LFPB 240930Z AUTO 36006KT 310V040 7000 OVC014 09/05 Q1028 BECMG BKN015
Conditions at: LFPB (PARIS/LE BOURGET, FR) observed 0930 UTC 24 March 2019
Temperature: 9.0°C (48°F)
Dewpoint: 5.0°C (41°F) [RH = 76%]
Pressure (altimeter): 30.35 inches Hg (1028.0 mb)
Winds: from the N (360 degrees) at 7 MPH (6 knots; 3.1 m/s)
Visibility: 4 miles ( 7 km)
Ceiling: 1400 feet AGL
Clouds: overcast cloud deck at 1400 feet AGL
Weather: no significant weather observed at this time

METAR text: LFPB 240900Z AUTO 03007KT 350V050 6000 OVC012 09/05 Q1028 BECMG BKN015
Conditions at: LFPB (PARIS/LE BOURGET, FR) observed 0900 UTC 24 March 2019
Temperature: 9.0°C (48°F)
Dewpoint: 5.0°C (41°F) [RH = 76%]
Pressure (altimeter): 30.35 inches Hg (1028.0 mb)
Winds: from the NNE (30 degrees) at 8 MPH (7 knots; 3.6 m/s)
Visibility: 4 miles ( 6 km)
Ceiling: 1200 feet AGL
Clouds: overcast cloud deck at 1200 feet AGL
Weather: no significant weather observed at this time

METAR text: LFPB 240830Z AUTO 02006KT 350V050 6000 OVC012 08/05 Q1028 BECMG BKN015
Conditions at: LFPB (PARIS/LE BOURGET, FR) observed 0830 UTC 24 March 2019
Temperature: 8.0°C (46°F)
Dewpoint: 5.0°C (41°F) [RH = 81%]
Pressure (altimeter): 30.35 inches Hg (1028.0 mb)
Winds: from the NNE (20 degrees) at 7 MPH (6 knots; 3.1 m/s)
Visibility: 4 miles ( 6 km)
Ceiling: 1200 feet AGL
Clouds: overcast cloud deck at 1200 feet AGL
Weather: no significant weather observed at this time

METAR text: LFPB 240800Z AUTO 36006KT 330V030 6000 OVC011 08/05 Q1028 BECMG BKN015
Conditions at: LFPB (PARIS/LE BOURGET, FR) observed 0800 UTC 24 March 2019
Temperature: 8.0°C (46°F)
Dewpoint: 5.0°C (41°F) [RH = 81%]
Pressure (altimeter): 30.35 inches Hg (1028.0 mb)
Winds: from the N (360 degrees) at 7 MPH (6 knots; 3.1 m/s)
Visibility: 4 miles ( 6 km)
Ceiling: 1100 feet AGL
Clouds: overcast cloud deck at 1100 feet AGL
Weather: no significant weather observed at this time

METAR text: LFPB 240730Z AUTO 36007KT 330V030 5000 BR OVC010 08/06 Q1028 BECMG BKN015
Conditions at: LFPB (PARIS/LE BOURGET, FR) observed 0730 UTC 24 March 2019
Temperature: 8.0°C (46°F)
Dewpoint: 6.0°C (43°F) [RH = 87%]
Pressure (altimeter): 30.35 inches Hg (1028.0 mb)
Winds: from the N (360 degrees) at 8 MPH (7 knots; 3.6 m/s)
Visibility: 3 miles ( 5 km)
Ceiling: 1000 feet AGL
Clouds: overcast cloud deck at 1000 feet AGL
Weather: BR  (mist)

METAR text: LFPB 240700Z AUTO 36005KT 330V030 5000 BR OVC010 08/06 Q1028 BECMG BKN015
Conditions at: LFPB (PARIS/LE BOURGET, FR) observed 0700 UTC 24 March 2019
Temperature: 8.0°C (46°F)
Dewpoint: 6.0°C (43°F) [RH = 87%]
Pressure (altimeter): 30.35 inches Hg (1028.0 mb)
Winds: from the N (360 degrees) at 6 MPH (5 knots; 2.6 m/s)
Visibility: 3 miles ( 5 km)
Ceiling: 1000 feet AGL
Clouds: overcast cloud deck at 1000 feet AGL
Weather: BR  (mist)

Forecast for: LFPB (PARIS/LE BOURGET, FR)
Text: TAF LFPB 251700Z 2518/2618 36010KT CAVOK
Forecast period: 1800 UTC 25 March 2019 to 1800 UTC 26 March 2019
Forecast type: FROM: standard forecast or significant change
Winds: from the N (360 degrees) at 12 MPH (10 knots; 5.1 m/s)
Visibility: 6 or more miles 10+ km)
Ceiling: unknown
Clouds: missing
Weather: NSW  (no significant weather)
Text: TEMPO 2603/2609 BKN011
Forecast period: 0300 to 0900 UTC 26 March 2019
Forecast type: TEMPORARY: The following changes expected for less than half the time period
Visibility: missing
Ceiling: 1100 feet AGL
Clouds: broken clouds at 1100 feet AGL
Weather: no significant weather forecast for this period
Text: PROB40
Forecast period: 0300 to 0600 UTC 26 March 2019
Forecast type: TEMPORARY: The following changes expected for less than half the time period
Visibility: missing
Ceiling: 600 feet AGL
Clouds: broken clouds at 600 feet AGL
Weather: no significant weather forecast for this period